Time;durP1;ratioP1;P1;durP2;ratioP2;P2;SDS_P1;SDS_P2;PMS_P1;PMS_P2;Temp;Humidity;BMP_temperature;BMP_pressure;BME280_temperature;BME280_humidity;BME280_pressure;Samples;Min_cycle;Max_cycle;Signal;HPM_P1;HPM_P2
2024/02/15 00:01:15;;;;;;;;;;;;;;;6.95;67.61;95767.75;4948617;28;20392;-78
2024/02/15 00:03:40;;;;;;;;;;;;;;;7.57;65.71;95772.22;4958063;28;19964;-78
2024/02/15 00:06:06;;;;;;;;;;;;;;;7.14;66.49;95780.00;4948691;28;19925;-77
2024/02/15 00:08:32;;;;;;;;;;;;;;;7.97;62.89;95777.97;4958301;28;19926;-77
2024/02/15 00:10:57;;;;;;;;;;;;;;;7.51;64.47;95776.34;4967883;28;19935;-77
2024/02/15 00:13:23;;;;;;;;;;;;;;;7.10;65.83;95783.94;4958038;28;19926;-77
2024/02/15 00:15:49;;;;;;;;;;;;;;;7.78;63.87;95777.19;4959341;28;20017;-77
2024/02/15 00:18:14;;;;;;;;;;;;;;;7.38;64.38;95782.03;4956864;28;19929;-78
2024/02/15 00:20:39;;;;;;;;;;;;;;;7.25;66.15;95778.94;4958357;28;19954;-77
2024/02/15 00:23:06;;;;;;;;;;;;;;;6.99;66.87;95769.97;4971930;28;19949;-77
2024/02/15 00:25:31;;;;;;;;;;;;;;;7.49;65.31;95775.66;4960264;28;20280;-77
2024/02/15 00:27:56;;;;;;;;;;;;;;;7.62;64.80;95777.88;4959311;28;20030;-77
2024/02/15 00:30:21;;;;;;;;;;;;;;;6.74;68.12;95782.94;4958283;28;20065;-77
2024/02/15 00:32:47;;;;;;;;;;;;;;;7.28;65.90;95776.81;4972471;28;19981;-77
2024/02/15 00:35:13;;;;;;;;;;;;;;;7.31;66.18;95774.88;4970734;28;20024;-78
2024/02/15 00:37:38;;;;;;;;;;;;;;;7.12;67.12;95768.75;4974698;28;19961;-77
2024/02/15 00:40:03;;;;;;;;;;;;;;;7.47;66.01;95772.34;4952076;28;19930;-78
2024/02/15 00:42:31;;;;;;;;;;;;;;;7.83;65.08;95762.66;4957310;28;19926;-77
2024/02/15 00:44:56;;;;;;;;;;;;;;;7.54;64.63;95775.19;4941278;28;19929;-77
2024/02/15 00:47:22;;;;;;;;;;;;;;;7.53;64.18;95774.38;4957369;28;19926;-78
2024/02/15 00:49:47;;;;;;;;;;;;;;;7.67;64.03;95780.09;4957016;28;19922;-79
2024/02/15 00:52:12;;;;;;;;;;;;;;;7.49;63.83;95782.78;4958728;28;19930;-80
2024/02/15 00:54:37;;;;;;;;;;;;;;;7.70;63.47;95763.88;4957052;28;20607;-79
2024/02/15 00:57:03;;;;;;;;;;;;;;;8.08;62.92;95779.53;4957000;28;19996;-79
2024/02/15 00:59:28;;;;;;;;;;;;;;;7.60;64.39;95786.97;4957534;28;19933;-78
2024/02/15 01:01:54;;;;;;;;;;;;;;;7.41;64.28;95783.53;4957511;28;19936;-78
2024/02/15 01:04:19;;;;;;;;;;;;;;;7.74;63.29;95770.53;4954622;28;19922;-78
2024/02/15 01:06:45;;;;;;;;;;;;;;;7.86;63.45;95781.72;4960222;28;19933;-79
2024/02/15 01:09:10;;;;;;;;;;;;;;;7.79;63.59;95776.22;4959722;28;19929;-78
2024/02/15 01:11:36;;;;;;;;;;;;;;;8.01;62.94;95781.13;4971608;28;19929;-79
2024/02/15 01:14:01;;;;;;;;;;;;;;;7.79;63.73;95770.91;4954754;28;20024;-78
2024/02/15 01:16:27;;;;;;;;;;;;;;;7.77;63.48;95775.56;4972077;28;20020;-78
2024/02/15 01:18:52;;;;;;;;;;;;;;;7.95;62.98;95777.28;4956976;28;19962;-79
2024/02/15 01:21:19;;;;;;;;;;;;;;;7.85;63.65;95784.53;4954411;28;20011;-78
2024/02/15 01:23:44;;;;;;;;;;;;;;;7.85;63.58;95777.41;4957006;28;20371;-80
2024/02/15 01:26:12;;;;;;;;;;;;;;;7.32;63.72;95787.13;4956400;28;19937;-78
2024/02/15 01:28:37;;;;;;;;;;;;;;;7.35;65.02;95782.31;4955655;28;19926;-78
2024/02/15 01:31:02;;;;;;;;;;;;;;;7.82;63.94;95777.72;4953884;28;20514;-82
2024/02/15 01:33:27;;;;;;;;;;;;;;;7.40;64.49;95784.53;4954879;28;20671;-78
2024/02/15 01:35:53;;;;;;;;;;;;;;;7.78;63.99;95776.34;4958285;28;20383;-77
2024/02/15 01:38:18;;;;;;;;;;;;;;;7.43;65.04;95786.88;4971858;28;20342;-79
2024/02/15 01:40:44;;;;;;;;;;;;;;;7.32;65.78;95780.00;4972311;28;19932;-79
2024/02/15 01:43:09;;;;;;;;;;;;;;;7.41;64.97;95784.38;4968447;28;20069;-80
2024/02/15 01:45:35;;;;;;;;;;;;;;;7.27;65.62;95792.84;4954779;28;20256;-80
2024/02/15 01:48:01;;;;;;;;;;;;;;;7.31;64.89;95788.91;4955364;28;20401;-81
2024/02/15 01:50:28;;;;;;;;;;;;;;;7.53;64.82;95779.69;4953759;28;19922;-79
2024/02/15 01:52:54;;;;;;;;;;;;;;;6.97;66.04;95785.16;4970105;28;20407;-78
2024/02/15 01:55:19;;;;;;;;;;;;;;;6.91;66.61;95785.78;4968884;28;19918;-77
2024/02/15 01:57:47;;;;;;;;;;;;;;;7.00;67.34;95784.84;4954944;28;19980;-78
2024/02/15 02:00:13;;;;;;;;;;;;;;;6.96;67.56;95774.72;4955069;28;20220;-77
2024/02/15 02:02:39;;;;;;;;;;;;;;;7.26;65.98;95772.66;4939997;28;20482;-78
2024/02/15 02:05:04;;;;;;;;;;;;;;;6.96;67.22;95766.78;4954254;28;19922;-77
2024/02/15 02:07:29;;;;;;;;;;;;;;;7.24;66.27;95764.06;4957304;28;19925;-77
2024/02/15 02:09:55;;;;;;;;;;;;;;;7.20;66.29;95763.50;4955465;28;20017;-78
2024/02/15 02:12:20;;;;;;;;;;;;;;;7.02;66.50;95771.47;4955136;28;20339;-78
2024/02/15 02:14:45;;;;;;;;;;;;;;;7.35;65.79;95771.72;4954761;28;19972;-77
2024/02/15 02:17:12;;;;;;;;;;;;;;;7.39;66.00;95761.69;4956193;28;20201;-77
2024/02/15 02:19:38;;;;;;;;;;;;;;;7.37;66.00;95759.19;4956835;28;19926;-78
2024/02/15 02:22:05;;;;;;;;;;;;;;;7.26;65.94;95762.06;4953598;28;20272;-77
2024/02/15 02:24:31;;;;;;;;;;;;;;;6.89;67.38;95750.66;4954029;28;19932;-77
2024/02/15 02:26:56;;;;;;;;;;;;;;;7.61;64.92;95756.84;4956507;28;19933;-78
2024/02/15 02:29:21;;;;;;;;;;;;;;;7.76;64.81;95747.31;4970837;28;19921;-78
2024/02/15 02:31:48;;;;;;;;;;;;;;;7.20;66.78;95746.78;4971479;28;19929;-77
2024/02/15 02:34:14;;;;;;;;;;;;;;;7.31;66.06;95746.53;4956018;28;20341;-77
2024/02/15 02:36:40;;;;;;;;;;;;;;;7.41;65.16;95757.03;4970905;28;19922;-77
2024/02/15 02:39:07;;;;;;;;;;;;;;;7.47;65.47;95748.50;4970033;28;20474;-78
2024/02/15 02:41:32;;;;;;;;;;;;;;;7.33;66.60;95743.75;4969578;28;19956;-77
2024/02/15 02:43:57;;;;;;;;;;;;;;;7.50;65.76;95742.88;4970678;28;19925;-77
2024/02/15 02:46:23;;;;;;;;;;;;;;;7.19;66.51;95753.06;4953615;28;19930;-78
2024/02/15 02:48:48;;;;;;;;;;;;;;;7.60;65.04;95748.09;4959982;28;20270;-77
2024/02/15 02:51:13;;;;;;;;;;;;;;;7.38;65.08;95750.25;4966365;28;19992;-77
2024/02/15 02:53:38;;;;;;;;;;;;;;;7.72;64.67;95740.69;4960277;28;19922;-77
2024/02/15 02:56:04;;;;;;;;;;;;;;;8.19;63.11;95743.91;4966219;28;20270;-77
2024/02/15 02:58:29;;;;;;;;;;;;;;;8.17;63.22;95748.56;4948239;28;19926;-77
2024/02/15 03:00:54;;;;;;;;;;;;;;;8.05;62.79;95735.59;4969461;28;19938;-77
2024/02/15 03:03:19;;;;;;;;;;;;;;;7.75;63.22;95734.25;4967684;28;19922;-77
2024/02/15 03:05:45;;;;;;;;;;;;;;;8.39;62.29;95736.53;4958156;28;19961;-76
2024/02/15 03:08:14;;;;;;;;;;;;;;;8.47;61.62;95730.41;4970974;28;19918;-76
2024/02/15 03:10:40;;;;;;;;;;;;;;;8.60;62.06;95729.13;4973318;28;20229;-76
2024/02/15 03:13:07;;;;;;;;;;;;;;;8.62;61.08;95735.94;4955104;28;19918;-76
2024/02/15 03:15:33;;;;;;;;;;;;;;;8.40;60.84;95726.78;4970331;28;20363;-76
2024/02/15 03:17:58;;;;;;;;;;;;;;;7.94;63.87;95732.38;4954745;28;19981;-76
2024/02/15 03:20:24;;;;;;;;;;;;;;;8.24;62.71;95728.38;4953473;28;20081;-77
2024/02/15 03:22:58;;;;;;;;;;;;;;;8.63;61.39;95729.63;4962588;28;20089;-76
2024/02/15 03:25:23;;;;;;;;;;;;;;;8.15;61.70;95724.84;4954761;28;20426;-77
2024/02/15 03:27:51;;;;;;;;;;;;;;;8.47;61.40;95727.75;4955554;28;20125;-77
2024/02/15 03:30:16;;;;;;;;;;;;;;;8.87;60.93;95733.31;4954346;28;20238;-76
2024/02/15 03:32:42;;;;;;;;;;;;;;;8.95;60.35;95724.56;4955233;28;20375;-76
2024/02/15 03:35:07;;;;;;;;;;;;;;;9.01;60.01;95726.56;4955831;28;19929;-77
2024/02/15 03:37:36;;;;;;;;;;;;;;;9.02;60.55;95724.72;4956341;28;20315;-77
2024/02/15 03:40:03;;;;;;;;;;;;;;;8.80;60.04;95725.19;4955064;28;19930;-76
2024/02/15 03:42:29;;;;;;;;;;;;;;;7.91;61.78;95725.56;4956219;28;20351;-76
2024/02/15 03:44:55;;;;;;;;;;;;;;;8.55;60.58;95729.63;4958415;28;19921;-77
2024/02/15 03:47:20;;;;;;;;;;;;;;;8.83;60.51;95734.63;4955563;28;20384;-76
2024/02/15 03:49:45;;;;;;;;;;;;;;;9.08;60.00;95732.06;4953989;28;20309;-77
2024/02/15 03:52:11;;;;;;;;;;;;;;;8.41;60.42;95731.06;4956468;28;19926;-77
2024/02/15 03:54:36;;;;;;;;;;;;;;;8.98;59.97;95729.56;4970162;28;19949;-76
2024/02/15 03:57:01;;;;;;;;;;;;;;;8.75;59.82;95726.66;4957289;28;20303;-76
2024/02/15 03:59:27;;;;;;;;;;;;;;;7.65;64.01;95729.88;4974281;28;19918;-77
2024/02/15 04:01:52;;;;;;;;;;;;;;;8.38;62.03;95729.59;4956987;28;20580;-76
2024/02/15 04:04:17;;;;;;;;;;;;;;;8.76;60.58;95733.63;4974233;28;19925;-77
2024/02/15 04:06:43;;;;;;;;;;;;;;;8.82;59.40;95736.47;4967233;28;20013;-76
2024/02/15 04:09:08;;;;;;;;;;;;;;;7.58;63.62;95734.16;4961416;28;19980;-76
2024/02/15 04:11:33;;;;;;;;;;;;;;;7.49;64.15;95730.63;4974192;28;20586;-76
2024/02/15 04:13:59;;;;;;;;;;;;;;;7.85;63.67;95728.88;4960391;28;20399;-76
2024/02/15 04:16:25;;;;;;;;;;;;;;;8.17;63.44;95725.50;4974894;28;19965;-77
2024/02/15 04:18:50;;;;;;;;;;;;;;;7.99;63.25;95725.59;4957420;28;20403;-77
2024/02/15 04:21:19;;;;;;;;;;;;;;;8.76;60.28;95718.53;4973503;28;19941;-77
2024/02/15 04:23:45;;;;;;;;;;;;;;;7.77;63.10;95725.19;4952239;28;20330;-77
2024/02/15 04:26:13;;;;;;;;;;;;;;;8.68;60.57;95715.88;4959960;28;19932;-77
2024/02/15 04:28:38;;;;;;;;;;;;;;;8.97;59.85;95714.59;4962463;28;20119;-77
2024/02/15 04:31:05;;;;;;;;;;;;;;;8.32;60.58;95713.50;4973571;28;20032;-77
2024/02/15 04:33:30;;;;;;;;;;;;;;;8.69;60.61;95712.22;4963147;28;19945;-77
2024/02/15 04:35:55;;;;;;;;;;;;;;;8.99;59.61;95714.44;4977267;28;20433;-77
2024/02/15 04:38:21;;;;;;;;;;;;;;;9.14;58.92;95706.63;4961392;28;19922;-77
2024/02/15 04:40:47;;;;;;;;;;;;;;;9.17;59.23;95707.13;4976850;28;19977;-77
2024/02/15 04:43:15;;;;;;;;;;;;;;;7.59;63.13;95717.28;4966713;28;19937;-78
2024/02/15 04:45:41;;;;;;;;;;;;;;;8.20;61.40;95718.25;4962102;28;19934;-77
2024/02/15 04:48:07;;;;;;;;;;;;;;;8.56;61.36;95710.88;4962903;28;19922;-78
2024/02/15 04:50:32;;;;;;;;;;;;;;;8.89;60.04;95709.25;4973889;28;19958;-77
2024/02/15 04:52:57;;;;;;;;;;;;;;;7.77;61.74;95714.59;4958472;28;20357;-77
2024/02/15 04:55:22;;;;;;;;;;;;;;;8.77;60.56;95719.38;4974489;28;20042;-77
2024/02/15 04:57:48;;;;;;;;;;;;;;;9.06;59.10;95710.97;4958383;28;20388;-77
2024/02/15 05:00:15;;;;;;;;;;;;;;;8.46;60.75;95715.50;4961780;28;20493;-77
2024/02/15 05:02:40;;;;;;;;;;;;;;;8.76;60.16;95709.75;4978174;28;19925;-77
2024/02/15 05:05:09;;;;;;;;;;;;;;;8.79;59.58;95712.06;4960512;28;20228;-78
2024/02/15 05:07:39;;;;;;;;;;;;;;;8.73;59.68;95710.06;4971395;28;19973;-77
2024/02/15 05:10:06;;;;;;;;;;;;;;;8.79;59.28;95712.91;4959424;28;20184;-77
2024/02/15 05:12:31;;;;;;;;;;;;;;;8.76;59.56;95710.56;4958242;28;19929;-78
2024/02/15 05:14:56;;;;;;;;;;;;;;;7.81;61.44;95711.59;4959036;28;19926;-77
2024/02/15 05:17:21;;;;;;;;;;;;;;;8.72;60.12;95705.75;4977892;28;20132;-77
2024/02/15 05:19:47;;;;;;;;;;;;;;;8.37;61.41;95709.31;4973842;28;19929;-77
2024/02/15 05:22:13;;;;;;;;;;;;;;;8.54;60.09;95712.84;4958876;28;19926;-78
2024/02/15 05:24:38;;;;;;;;;;;;;;;8.34;60.29;95712.31;4957917;28;19918;-78
2024/02/15 05:27:04;;;;;;;;;;;;;;;8.81;59.35;95708.25;4960933;28;20017;-78
2024/02/15 05:29:33;;;;;;;;;;;;;;;8.77;58.91;95703.47;4956816;28;19925;-78
2024/02/15 05:31:59;;;;;;;;;;;;;;;8.73;58.62;95705.59;4961080;28;19932;-78
2024/02/15 05:34:24;;;;;;;;;;;;;;;8.20;60.91;95713.78;4960707;28;19926;-78
2024/02/15 05:36:49;;;;;;;;;;;;;;;8.75;58.99;95711.59;4974712;28;20139;-78
2024/02/15 05:39:14;;;;;;;;;;;;;;;8.75;59.14;95708.94;4961040;28;19965;-78
2024/02/15 05:41:40;;;;;;;;;;;;;;;8.85;58.22;95713.25;4957705;28;19930;-78
2024/02/15 05:44:06;;;;;;;;;;;;;;;8.46;59.90;95710.19;4957212;28;20039;-78
2024/02/15 05:46:31;;;;;;;;;;;;;;;8.19;62.26;95706.78;4958155;28;19926;-78
2024/02/15 05:48:57;;;;;;;;;;;;;;;7.99;62.31;95704.41;4950347;28;19924;-78
2024/02/15 05:51:22;;;;;;;;;;;;;;;7.72;63.38;95713.38;4961918;28;19923;-78
2024/02/15 05:53:49;;;;;;;;;;;;;;;8.09;61.47;95714.06;4961777;28;20601;-78
2024/02/15 05:56:14;;;;;;;;;;;;;;;7.91;62.37;95707.88;4957038;28;19929;-79
2024/02/15 05:58:39;;;;;;;;;;;;;;;8.50;59.27;95700.09;4965681;28;19926;-77
2024/02/15 06:01:06;;;;;;;;;;;;;;;8.22;61.18;95706.47;4955407;28;20439;-78
2024/02/15 06:03:33;;;;;;;;;;;;;;;7.91;61.84;95709.66;4940330;28;20360;-78
2024/02/15 06:05:59;;;;;;;;;;;;;;;8.61;60.43;95706.91;4971223;28;19969;-78
2024/02/15 06:08:25;;;;;;;;;;;;;;;8.29;61.65;95710.16;4956320;28;20169;-77
2024/02/15 06:10:50;;;;;;;;;;;;;;;8.74;59.76;95707.25;4959859;28;19960;-78
2024/02/15 06:13:16;;;;;;;;;;;;;;;8.88;58.44;95712.91;4955658;28;20165;-78
2024/02/15 06:15:41;;;;;;;;;;;;;;;9.13;57.65;95712.94;4955987;28;20478;-79
2024/02/15 06:18:10;;;;;;;;;;;;;;;9.11;58.10;95706.97;4955561;28;19926;-78
2024/02/15 06:20:35;;;;;;;;;;;;;;;9.29;56.50;95707.63;4957455;28;20768;-78
2024/02/15 06:23:01;;;;;;;;;;;;;;;8.81;58.69;95710.09;4958141;28;20029;-78
2024/02/15 06:25:27;;;;;;;;;;;;;;;9.24;57.98;95715.25;4956811;28;19922;-78
2024/02/15 06:27:59;;;;;;;;;;;;;;;9.07;57.54;95715.28;4955900;28;20391;-78
2024/02/15 06:41:20;;;;;;;;;;;;;;;8.98;58.49;95705.66;4967528;28;20406;-77
2024/02/15 06:43:45;;;;;;;;;;;;;;;8.76;59.39;95705.28;4970486;28;19961;-77
2024/02/15 06:46:10;;;;;;;;;;;;;;;8.92;58.59;95706.28;4969815;28;20343;-77
2024/02/15 06:48:36;;;;;;;;;;;;;;;8.56;60.18;95710.88;4970048;28;19997;-77
2024/02/15 06:51:03;;;;;;;;;;;;;;;8.67;60.10;95700.97;4970395;28;19926;-77
2024/02/15 06:53:30;;;;;;;;;;;;;;;9.00;58.63;95703.66;4953935;28;19964;-77
2024/02/15 06:55:55;;;;;;;;;;;;;;;9.22;57.65;95706.66;4955244;28;19937;-77
2024/02/15 06:58:20;;;;;;;;;;;;;;;9.24;57.14;95709.94;4955319;28;21473;-77
2024/02/15 07:00:46;;;;;;;;;;;;;;;9.56;57.06;95710.09;4954826;28;19937;-77
2024/02/15 07:03:11;;;;;;;;;;;;;;;9.30;57.00;95705.78;4965904;28;19926;-68
2024/02/15 07:05:38;;;;;;;;;;;;;;;9.41;57.05;95716.06;4949214;28;19930;-68
2024/02/15 07:08:05;;;;;;;;;;;;;;;9.35;57.29;95708.78;4955095;28;19921;-68
2024/02/15 07:10:31;;;;;;;;;;;;;;;9.28;56.63;95715.78;4953683;28;20562;-68
2024/02/15 07:12:56;;;;;;;;;;;;;;;9.22;56.97;95706.66;4956573;28;19925;-68
2024/02/15 07:15:21;;;;;;;;;;;;;;;9.13;57.55;95708.47;4955652;28;20470;-68
2024/02/15 07:17:47;;;;;;;;;;;;;;;8.76;57.84;95710.56;4957338;28;19988;-68
2024/02/15 07:20:17;;;;;;;;;;;;;;;8.28;59.85;95720.91;4955714;28;20372;-68
2024/02/15 07:22:43;;;;;;;;;;;;;;;8.47;60.15;95714.50;4954961;28;20002;-68
2024/02/15 07:25:10;;;;;;;;;;;;;;;8.79;59.74;95714.72;4949916;28;20106;-68
2024/02/15 07:27:35;;;;;;;;;;;;;;;7.86;62.51;95719.94;4955397;28;19984;-69
2024/02/15 07:30:00;;;;;;;;;;;;;;;8.60;60.22;95710.56;4953826;28;19969;-68
2024/02/15 07:32:26;;;;;;;;;;;;;;;9.00;58.37;95716.94;4954831;28;19965;-68
2024/02/15 07:34:52;;;;;;;;;;;;;;;9.27;56.81;95711.44;4956196;28;20020;-68
2024/02/15 07:37:17;;;;;;;;;;;;;;;9.16;57.14;95716.13;4955351;28;19938;-68
2024/02/15 07:39:42;;;;;;;;;;;;;;;8.92;57.89;95712.44;4957730;28;19980;-68
2024/02/15 07:42:09;;;;;;;;;;;;;;;8.64;59.18;95722.50;4952929;28;20965;-68
2024/02/15 07:44:36;;;;;;;;;;;;;;;9.11;56.73;95717.59;4958562;28;19937;-68
2024/02/15 07:47:02;;;;;;;;;;;;;;;8.80;57.74;95724.34;4955544;28;20236;-66
2024/02/15 07:49:27;;;;;;;;;;;;;;;9.25;56.95;95718.75;4952275;28;20032;-65
2024/02/15 07:51:52;;;;;;;;;;;;;;;9.53;56.36;95721.88;4954378;28;20211;-66
2024/02/15 07:54:20;;;;;;;;;;;;;;;9.31;57.10;95720.72;4953312;28;20192;-66
2024/02/15 07:56:46;;;;;;;;;;;;;;;8.25;60.66;95724.72;4952974;28;20587;-65
2024/02/15 07:59:11;;;;;;;;;;;;;;;8.76;58.46;95728.31;4952959;28;20442;-66
2024/02/15 08:01:39;;;;;;;;;;;;;;;8.38;59.41;95732.22;4953014;28;19930;-66
2024/02/15 08:04:05;;;;;;;;;;;;;;;7.47;63.51;95727.28;4953195;28;20345;-65
2024/02/15 08:06:32;;;;;;;;;;;;;;;8.17;61.35;95719.41;4948494;28;19926;-66
2024/02/15 08:08:57;;;;;;;;;;;;;;;7.73;61.88;95730.94;4953077;28;19956;-66
2024/02/15 08:11:26;;;;;;;;;;;;;;;8.47;60.21;95717.16;4953607;28;20592;-65
2024/02/15 08:13:53;;;;;;;;;;;;;;;8.23;60.13;95726.69;4952848;28;19985;-65
2024/02/15 08:16:19;;;;;;;;;;;;;;;8.21;59.79;95727.84;4951567;28;20082;-66
2024/02/15 08:18:46;;;;;;;;;;;;;;;7.98;60.70;95728.41;4952911;28;20137;-66
2024/02/15 08:21:11;;;;;;;;;;;;;;;8.98;58.56;95729.56;4959929;28;19926;-65
2024/02/15 08:23:36;;;;;;;;;;;;;;;9.30;56.86;95729.72;4953158;28;20339;-66
2024/02/15 08:26:01;;;;;;;;;;;;;;;9.52;56.25;95725.53;4952441;28;19992;-65
2024/02/15 08:28:28;;;;;;;;;;;;;;;8.95;57.93;95730.69;4953475;28;20304;-66
2024/02/15 08:30:54;;;;;;;;;;;;;;;8.78;58.47;95729.81;4953365;28;19926;-66
2024/02/15 08:33:19;;;;;;;;;;;;;;;8.75;58.63;95727.50;4949912;28;20561;-66
2024/02/15 08:35:44;;;;;;;;;;;;;;;6.90;66.36;95741.75;4955650;28;19930;-65
2024/02/15 08:38:10;;;;;;;;;;;;;;;8.54;60.59;95738.56;4958711;28;20773;-66
2024/02/15 08:40:35;;;;;;;;;;;;;;;9.10;57.41;95729.19;4955144;28;19930;-66
2024/02/15 08:43:00;;;;;;;;;;;;;;;8.88;58.55;95734.16;4952503;28;20009;-66
2024/02/15 08:45:26;;;;;;;;;;;;;;;9.08;56.89;95729.41;4956734;28;20215;-66
2024/02/15 08:47:52;;;;;;;;;;;;;;;9.43;54.76;95732.69;4955364;28;20434;-66
2024/02/15 08:50:18;;;;;;;;;;;;;;;9.64;55.19;95731.34;4955014;28;19926;-66
2024/02/15 08:52:44;;;;;;;;;;;;;;;9.67;54.31;95731.00;4951887;28;20213;-66
2024/02/15 08:55:09;;;;;;;;;;;;;;;9.54;55.20;95734.16;4953948;28;20161;-66
2024/02/15 08:57:40;;;;;;;;;;;;;;;9.85;54.63;95729.94;4955013;28;20359;-66
2024/02/15 09:00:13;;;;;;;;;;;;;;;10.14;53.43;95730.38;4953493;28;20294;-66
2024/02/15 09:02:38;;;;;;;;;;;;;;;9.97;54.15;95725.09;4953953;28;19930;-66
2024/02/15 09:05:03;;;;;;;;;;;;;;;10.06;53.55;95726.75;4952875;28;19933;-66
2024/02/15 09:07:30;;;;;;;;;;;;;;;10.04;53.56;95723.41;4954391;28;19922;-66
2024/02/15 09:09:55;;;;;;;;;;;;;;;9.82;54.56;95728.47;4955130;28;20110;-66
2024/02/15 09:12:21;;;;;;;;;;;;;;;10.29;52.21;95728.66;4954995;28;19999;-66
2024/02/15 09:14:47;;;;;;;;;;;;;;;10.32;52.93;95724.81;4952899;28;20478;-66
2024/02/15 09:17:12;;;;;;;;;;;;;;;10.45;51.43;95726.91;4953978;28;20489;-66
2024/02/15 09:19:38;;;;;;;;;;;;;;;10.86;50.76;95726.69;4955372;28;19930;-66
2024/02/15 09:22:04;;;;;;;;;;;;;;;11.19;51.57;95730.13;4953830;28;19956;-66
2024/02/15 09:24:29;;;;;;;;;;;;;;;11.08;51.43;95724.16;4956444;28;20311;-66
2024/02/15 09:26:55;;;;;;;;;;;;;;;11.51;49.74;95725.50;4954162;28;20232;-66
2024/02/15 09:29:21;;;;;;;;;;;;;;;11.20;50.85;95721.13;4955497;28;19938;-66
2024/02/15 09:31:47;;;;;;;;;;;;;;;11.29;49.87;95725.34;4955647;28;20435;-66
2024/02/15 09:34:13;;;;;;;;;;;;;;;11.41;50.13;95728.44;4956087;28;20519;-66
2024/02/15 09:36:38;;;;;;;;;;;;;;;11.18;51.86;95723.97;4955943;28;20226;-66
2024/02/15 09:39:03;;;;;;;;;;;;;;;11.59;50.21;95722.75;4956003;28;20307;-66
2024/02/15 09:41:29;;;;;;;;;;;;;;;10.87;53.21;95725.66;4959862;28;20143;-66
2024/02/15 09:43:54;;;;;;;;;;;;;;;11.28;51.18;95729.03;4958132;28;19926;-66
2024/02/15 09:46:19;;;;;;;;;;;;;;;10.58;54.01;95732.47;4955330;28;19976;-66
2024/02/15 09:48:46;;;;;;;;;;;;;;;11.21;51.42;95730.75;4959199;28;19937;-66
2024/02/15 09:51:12;;;;;;;;;;;;;;;10.85;50.82;95734.84;4953225;28;20403;-66
2024/02/15 09:53:37;;;;;;;;;;;;;;;11.55;49.28;95734.78;4962977;28;19936;-66
2024/02/15 09:56:04;;;;;;;;;;;;;;;11.92;49.34;95721.59;4955522;28;19922;-65
2024/02/15 09:58:33;;;;;;;;;;;;;;;11.95;48.98;95725.72;4966587;28;20326;-66
2024/02/15 10:00:58;;;;;;;;;;;;;;;12.08;47.44;95717.09;4954928;28;20216;-66
2024/02/15 10:03:24;;;;;;;;;;;;;;;11.94;48.67;95722.25;4954829;28;20452;-66
2024/02/15 10:05:49;;;;;;;;;;;;;;;11.51;48.64;95717.50;4954322;28;20589;-66
2024/02/15 10:08:15;;;;;;;;;;;;;;;11.62;48.10;95714.41;4951617;28;19953;-66
2024/02/15 10:10:41;;;;;;;;;;;;;;;10.92;50.88;95718.97;4954037;28;19930;-66
2024/02/15 10:13:07;;;;;;;;;;;;;;;10.96;50.86;95706.97;4952875;28;20203;-66
2024/02/15 10:15:36;;;;;;;;;;;;;;;10.88;50.44;95698.00;4954139;28;20169;-66
2024/02/15 10:18:02;;;;;;;;;;;;;;;11.41;49.71;95701.78;4954692;28;20013;-66
2024/02/15 10:20:27;;;;;;;;;;;;;;;11.65;49.64;95702.53;4954685;28;20030;-67
2024/02/15 10:22:54;;;;;;;;;;;;;;;11.89;49.15;95704.13;4955260;28;19988;-66
2024/02/15 10:25:20;;;;;;;;;;;;;;;10.95;51.58;95707.97;4954394;28;19926;-67
2024/02/15 10:27:45;;;;;;;;;;;;;;;11.38;49.20;95699.47;4951318;28;19933;-66
2024/02/15 10:30:17;;;;;;;;;;;;;;;11.38;48.53;95702.97;4954708;28;19976;-66
2024/02/15 10:32:43;;;;;;;;;;;;;;;11.49;48.20;95688.38;4954850;28;19973;-66
2024/02/15 10:35:08;;;;;;;;;;;;;;;11.36;48.99;95696.97;4954111;28;20009;-66
2024/02/15 10:37:34;;;;;;;;;;;;;;;11.72;48.01;95686.63;4954617;28;20180;-66
2024/02/15 10:40:08;;;;;;;;;;;;;;;12.10;47.94;95685.75;4954470;28;20044;-66
2024/02/15 10:42:34;;;;;;;;;;;;;;;12.36;47.66;95682.56;4954894;28;19930;-66
2024/02/15 10:45:01;;;;;;;;;;;;;;;11.93;47.23;95685.06;4954311;28;19926;-66
2024/02/15 10:47:27;;;;;;;;;;;;;;;11.85;46.92;95686.81;4951712;28;20308;-66
2024/02/15 10:49:52;;;;;;;;;;;;;;;12.27;46.60;95678.31;4954523;28;20133;-67
2024/02/15 10:52:17;;;;;;;;;;;;;;;12.53;46.05;95691.16;4954283;28;20355;-66
2024/02/15 10:54:46;;;;;;;;;;;;;;;11.79;48.10;95686.75;4954509;28;19926;-66
2024/02/15 10:57:12;;;;;;;;;;;;;;;11.67;48.59;95678.34;4955191;28;19937;-67
2024/02/15 10:59:38;;;;;;;;;;;;;;;11.50;49.43;95683.88;4951690;28;20010;-66
2024/02/15 11:02:22;;;;;;;;;;;;;;;11.60;48.68;95683.59;4946697;28;19926;-67
2024/02/15 11:04:48;;;;;;;;;;;;;;;10.69;50.47;95686.00;4952764;28;19926;-66
2024/02/15 11:07:14;;;;;;;;;;;;;;;10.34;52.29;95682.91;4950746;28;20413;-67
2024/02/15 11:09:39;;;;;;;;;;;;;;;11.25;50.24;95676.94;4951587;28;19953;-66
2024/02/15 11:12:05;;;;;;;;;;;;;;;11.57;49.46;95679.47;4953299;28;20028;-66
2024/02/15 11:14:31;;;;;;;;;;;;;;;12.03;47.46;95674.94;4967415;28;20458;-66
2024/02/15 11:17:06;;;;;;;;;;;;;;;12.64;47.20;95667.63;4950610;28;20551;-68
2024/02/15 11:19:34;;;;;;;;;;;;;;;12.92;46.21;95659.69;4954489;28;20467;-68
2024/02/15 11:22:03;;;;;;;;;;;;;;;12.51;46.59;95657.66;4952866;28;19926;-69
2024/02/15 11:24:29;;;;;;;;;;;;;;;12.13;45.52;95656.81;4954291;28;20132;-68
2024/02/15 11:26:58;;;;;;;;;;;;;;;9.05;54.14;95664.13;4953757;28;20537;-69
2024/02/15 11:29:42;;;;;;;;;;;;;;;11.00;50.10;95661.16;4952898;28;20398;-68
2024/02/15 11:32:08;;;;;;;;;;;;;;;9.49;52.90;95670.06;4953637;28;20036;-68
2024/02/15 11:34:44;;;;;;;;;;;;;;;10.36;51.66;95657.78;4953692;28;20424;-68
2024/02/15 11:37:09;;;;;;;;;;;;;;;11.28;50.00;95649.09;4948918;28;19981;-68
2024/02/15 11:39:44;;;;;;;;;;;;;;;11.79;47.99;95644.88;4953102;28;20030;-69
2024/02/15 11:42:25;;;;;;;;;;;;;;;11.93;47.60;95637.88;4952599;28;20000;-69
2024/02/15 11:44:59;;;;;;;;;;;;;;;11.76;47.87;95639.91;4949536;28;19944;-69
2024/02/15 11:47:26;;;;;;;;;;;;;;;12.29;46.65;95638.94;4950914;28;20573;-69
2024/02/15 11:49:53;;;;;;;;;;;;;;;12.74;45.43;95637.94;4951322;28;20653;-69
2024/02/15 11:52:19;;;;;;;;;;;;;;;12.81;45.04;95636.16;4952784;28;19936;-68
2024/02/15 11:54:45;;;;;;;;;;;;;;;13.35;43.68;95625.91;4952743;28;20409;-69
2024/02/15 11:57:13;;;;;;;;;;;;;;;13.97;42.05;95627.13;4952414;28;19922;-68
2024/02/15 11:59:52;;;;;;;;;;;;;;;14.39;42.51;95619.84;4956537;28;20033;-68
2024/02/15 12:18:46;;;;;;;;;;;;;;;15.18;38.83;95595.19;4963248;28;20322;-68
2024/02/15 12:21:12;;;;;;;;;;;;;;;15.46;40.56;95596.78;4957888;28;19926;-69
2024/02/15 12:23:37;;;;;;;;;;;;;;;14.84;39.74;95610.44;4962424;28;20350;-69
2024/02/15 12:26:03;;;;;;;;;;;;;;;14.00;41.20;95603.44;4957840;28;19926;-69
2024/02/15 12:28:28;;;;;;;;;;;;;;;15.21;39.50;95593.94;4955427;28;19922;-69
2024/02/15 12:30:54;;;;;;;;;;;;;;;15.43;39.81;95586.47;4954462;28;20499;-69
2024/02/15 12:33:21;;;;;;;;;;;;;;;15.64;38.83;95589.97;4954430;28;19989;-69
2024/02/15 12:35:46;;;;;;;;;;;;;;;15.15;40.09;95590.22;4958024;28;20222;-69
2024/02/15 12:38:16;;;;;;;;;;;;;;;15.17;38.90;95590.03;4956356;28;19976;-69
2024/02/15 12:40:41;;;;;;;;;;;;;;;13.57;42.25;95586.56;4955520;28;19967;-69
2024/02/15 12:43:08;;;;;;;;;;;;;;;14.92;39.26;95585.31;4959250;28;20323;-69
2024/02/15 12:45:36;;;;;;;;;;;;;;;15.60;38.92;95570.78;4950047;28;20600;-68
2024/02/15 12:48:02;;;;;;;;;;;;;;;15.97;38.95;95564.84;4953457;28;20183;-69
2024/02/15 12:50:28;;;;;;;;;;;;;;;15.88;37.73;95556.22;4955307;28;19984;-69
2024/02/15 12:52:55;;;;;;;;;;;;;;;15.68;37.95;95560.84;4952118;28;19930;-69
2024/02/15 12:55:21;;;;;;;;;;;;;;;15.83;37.37;95555.19;4957634;28;20008;-69
2024/02/15 12:57:52;;;;;;;;;;;;;;;15.90;37.59;95547.16;4954729;28;19926;-68
2024/02/15 13:00:21;;;;;;;;;;;;;;;16.13;37.63;95558.16;4956504;28;19933;-69
2024/02/15 13:02:48;;;;;;;;;;;;;;;15.92;36.81;95556.63;4954605;28;20008;-69
2024/02/15 13:05:14;;;;;;;;;;;;;;;15.31;38.15;95554.13;4955654;28;19926;-69
2024/02/15 13:07:40;;;;;;;;;;;;;;;14.32;40.88;95563.56;4955343;28;19945;-69
2024/02/15 13:10:06;;;;;;;;;;;;;;;14.88;38.61;95560.75;4952194;28;20151;-69
2024/02/15 13:12:34;;;;;;;;;;;;;;;13.82;41.52;95566.50;4953206;28;20299;-68
2024/02/15 13:14:59;;;;;;;;;;;;;;;14.24;41.05;95568.31;4955886;28;20028;-69